Home > Products > Valid Products > MTR

000
SAUS46 KPQR 241153
MTRREO
METAR KREO 241152Z AUTO 20007KT 09/02 A2990 RMK AO1 SLP112 T00890017
10100 20078 58009





000
SAUS46 KPQR 241053
MTRREO
METAR KREO 241052Z AUTO 19012KT 09/02 A2991 RMK AO1 SLP117 T00890022





000
SAUS46 KPQR 240958
MTRREO
METAR KREO 240952Z AUTO 21013G23KT 08/02 A2993 RMK AO1 PK WND
22026/0854 SLP125 T00830022





000
SAUS46 KPQR 240858 COR
MTRREO
METAR KREO 240852Z AUTO 22017G25KT 09/01 A2993 RMK AO1 PK WND
22027/0813 SLP125 T00890011 56004





000
SAUS46 KPQR 240753
MTRREO
METAR KREO 240752Z AUTO 21010KT 10/M04 A2994 RMK AO1 SLP125
T01001039 401501039





000
SAUS46 KPQR 240653
MTRREO
METAR KREO 240652Z AUTO 15007KT 09/M03 A2993 RMK AO1 SLP126
T00941033





000
SAUS46 KPQR 240553
MTRREO
METAR KREO 240552Z AUTO 15006KT 09/M04 A2995 RMK AO1 SLP133
T00941039 10150 20094 50002





000
SAUS46 KPQR 240453
MTRREO
METAR KREO 240452Z AUTO 14006KT 10/M04 A2996 RMK AO1 SLP140
T01001044





000
SAUS46 KPQR 240353
MTRREO
METAR KREO 240352Z AUTO 23003KT 11/M05 A2995 RMK AO1 SLP139
T01061050





000
SAUS46 KPQR 240253
MTRREO
METAR KREO 240252Z AUTO 27007KT 12/M07 A2994 RMK AO1 SLP133
T01171067 53003





000
SAUS46 KPQR 240153
MTRREO
METAR KREO 240152Z AUTO 25015G20KT 13/M07 A2993 RMK AO1 PK WND
23027/0117 SLP134 T01331072





000
SAUS46 KPQR 240053
MTRREO
METAR KREO 240052Z AUTO 25012G22KT 13/M08 A2993 RMK AO1 SLP143
T01331078





000
SAUS46 KPQR 232353
MTRREO
METAR KREO 232352Z AUTO 27014G24KT 15/M07 A2993 RMK AO1 SLP135
T01501067 10150 20100 56012





000
SAUS46 KPQR 232253
MTRREO
METAR KREO 232252Z AUTO 23006G20KT 13/M08 A2994 RMK AO1 SLP139
T01331078





000
SAUS46 KPQR 232153
MTRREO
METAR KREO 232152Z AUTO 19014G23KT 13/M07 A2996 RMK AO1 SLP146
T01331072





000
SAUS46 KPQR 232053
MTRREO
METAR KREO 232052Z AUTO 22015G21KT 13/M08 A2997 RMK AO1 SLP153
T01331078 58011





000
SAUS46 KPQR 231953
MTRREO
METAR KREO 231952Z AUTO 24015G24KT 13/M08 A2998 RMK AO1 SLP156
T01281078





000
SAUS46 KPQR 231853
MTRREO
METAR KREO 231852Z AUTO 24013G24KT 12/M08 A2999 RMK AO1 SLP158
T01171083





000
SAUS46 KPQR 231753
MTRREO
METAR KREO 231752Z AUTO 22014G22KT 11/M08 A3000 RMK AO1 SLP162
T01061078 10106 21039 50002





000
SAUS46 KPQR 231653
MTRREO
METAR KREO 231652Z AUTO 21010KT 09/M07 A3001 RMK AO1 SLP166
T00891072





000
SAUS46 KPQR 231554
MTRREO
METAR KREO 231552Z AUTO 24015G21KT 07/M06 A3001 RMK AO1 SLP164
T00721061





000
SAUS46 KPQR 231453
MTRREO
METAR KREO 231452Z AUTO 23014KT 06/M06 A3000 RMK AO1 SLP162
T00561061 53005





000
SAUS46 KPQR 231355
MTRREO
METAR KREO 231352Z AUTO 21004KT 02/M06 A2999 RMK AO1 SLP164
T00171061





000
SAUS46 KPQR 231253
MTRREO
METAR KREO 231252Z AUTO 17005KT M03/M08 A2998 RMK AO1 SLP164
T10331078





000
SAUS46 KPQR 231153
MTRREO
METAR KREO 231152Z AUTO 00000KT M01/M07 A2998 RMK AO1 SLP161 70003
T10111072 10033 21033 53006





000
SAUS46 KPQR 231053
MTRREO
METAR KREO 231052Z AUTO 23004KT M01/M07 A2998 RMK AO1 SLP158
T10061072





000
SAUS46 KPQR 230953
MTRREO
METAR KREO 230952Z AUTO 17006KT M01/M07 A2996 RMK AO1 SLP150
T10061072





000
SAUS46 KPQR 230853
MTRREO
METAR KREO 230852Z AUTO 14008KT M02/M08 A2996 RMK AO1 SLP157
T10221078 50003





000
SAUS46 KPQR 230753
MTRREO
METAR KREO 230752Z AUTO 20005KT M01/M07 A2997 RMK AO1 SLP154
T10061072 401331006





000
SAUS46 KPQR 230653
MTRREO
METAR KREO 230652Z AUTO 00000KT 02/M07 A2996 RMK AO1 SLP150
T00171072





000
SAUS46 KPQR 230553
MTRREO
METAR KREO 230552Z AUTO 30006KT 02/M08 A2995 RMK AO1 SLP143
T00221083 10106 20017 51020





000
SAUS46 KPQR 230453
MTRREO
METAR KREO 230452Z AUTO 31004KT 03/M09 A2994 RMK AO1 SLP140
T00331089





000
SAUS46 KPQR 230353
MTRREO
METAR KREO 230352Z AUTO 29011KT 06/M09 A2991 RMK AO1 SLP128
T00611089





000
SAUS46 KPQR 230253
MTRREO
METAR KREO 230252Z AUTO 28012KT 07/M10 A2988 RMK AO1 SLP119
T00671100 53024





000
SAUS46 KPQR 230153
MTRREO
METAR KREO 230152Z AUTO 28012G24KT 08/M10 A2985 RMK AO1 PK WND
28029/0100 SLP106 T00831100





000
SAUS46 KPQR 230053
MTRREO
METAR KREO 230052Z AUTO 29020G28KT 10/M09 A2983 RMK AO1 PK WND
28028/0044 SLP091 T01001094





000
SAUS46 KPQR 222353
MTRREO
METAR KREO 222352Z AUTO 28019G27KT 09/M07 A2980 RMK AO1 PK WND
29033/2307 SLP083 T00941067 10128 20083 53009





000
SAUS46 KPQR 222253
MTRREO
METAR KREO 222252Z AUTO 28024G29KT 11/M06 A2978 RMK AO1 PK WND
28033/2211 SLP073 T01061056





000
SAUS46 KPQR 222153
MTRREO
METAR KREO 222152Z AUTO 27021G29KT 13/M06 A2976 RMK AO1 PK WND
27029/2152 SLP061 T01281056





000
SAUS46 KPQR 222053
MTRREO
METAR KREO 222052Z AUTO 28020G28KT 09/M03 A2977 RMK AO1 PK WND
27028/2046 SLP069 T00891028 51017





000
SAUS46 KPQR 221953
MTRREO
METAR KREO 221952Z AUTO 29013G20KT 11/M03 A2975 RMK AO1 SLP062
T01061028





000
SAUS46 KPQR 221853
MTRREO
METAR KREO 221852Z AUTO 29016KT 09/M02 A2975 RMK AO1 PK WND
23026/1755 WSHFT 1754 SLP061 T00891017





000
SAUS46 KPQR 221813
MTRREO
SPECI KREO 221811Z AUTO 28019G26KT 08/M01 A2974 RMK AO1 PK WND
23026/1755 WSHFT 1754 T00831006





000
SAUS46 KPQR 221753
MTRREO
METAR KREO 221752Z AUTO 22018G26KT 11/M03 A2972 RMK AO1 PK WND
19027/1706 WSHFT 1706 SLP047 60003 T01061028 10111 20072 55007





000
SAUS46 KPQR 221724
MTRREO
SPECI KREO 221723Z AUTO 22018G22KT 10/M02 A2971 RMK AO1 PK WND
19027/1706 WSHFT 1706 T01001017





000
SAUS46 KPQR 221653
MTRREO
METAR KREO 221652Z AUTO 17016KT 09/03 A2970 RMK AO1 PK WND
15028/1605 SLP047 T00890033





000
SAUS46 KPQR 221553
MTRREO
METAR KREO 221552Z AUTO 15019G26KT 08/03 A2972 RMK AO1 PK WND
15026/1552 SLP053 T00830033





000
SAUS46 KPQR 221453
MTRREO
METAR KREO 221452Z AUTO 14009KT 08/04 A2974 RMK AO1 SLP055 P0002
60003 T00780039 58003





000
SAUS46 KPQR 221353
MTRREO
METAR KREO 221352Z AUTO 21012KT 07/03 A2978 RMK AO1 SLP066 P0001
T00720033





000
SAUS46 KPQR 221253
MTRREO
METAR KREO 221252Z AUTO 28009KT 11/M01 A2975 RMK AO1 SLP049
T01111006





000
SAUS46 KPQR 221153
MTRREO
METAR KREO 221152Z AUTO 14009KT 11/00 A2975 RMK AO1 SLP050 T01060000
10139 20100 58009





000
SAUS46 KPQR 221053
MTRREO
METAR KREO 221052Z AUTO 19005KT 11/M03 A2977 RMK AO1 SLP054
T01111033





000
SAUS46 KPQR 220953
MTRREO
METAR KREO 220952Z AUTO 24011G17KT 12/M03 A2977 RMK AO1 WSHFT 0839
SLP054 T01221033





000
SAUS46 KPQR 220857
MTRREO
SPECI KREO 220856Z AUTO 23014G23KT 12/M04 A2978 RMK AO1 WSHFT 0839
T01221044





000
SAUS46 KPQR 220853
MTRREO
METAR KREO 220852Z AUTO 23017KT 13/M05 A2978 RMK AO1 WSHFT 0836
SLP054 T01281050 56006





000
SAUS46 KPQR 220753
MTRREO
METAR KREO 220752Z AUTO 17007KT 12/M06 A2978 RMK AO1 SLP058
T01171061 402280000





000
SAUS46 KPQR 220653
MTRREO
METAR KREO 220652Z AUTO 17012KT 13/M06 A2978 RMK AO1 SLP059
T01331061





000
SAUS46 KPQR 220553
MTRREO
METAR KREO 220552Z AUTO 17010KT 14/M07 A2980 RMK AO1 SLP068
T01391067 10206 20117 58014





000
SAUS46 KPQR 220453
MTRREO
METAR KREO 220452Z AUTO 09005KT 12/M06 A2983 RMK AO1 SLP084
T01221061





000
SAUS46 KPQR 220353
MTRREO
METAR KREO 220352Z AUTO 16006KT 13/M06 A2985 RMK AO1 SLP095
T01281061





000
SAUS46 KPQR 220253
MTRREO
METAR KREO 220252Z AUTO 21007KT 17/M06 A2985 RMK AO1 SLP095
T01671061 58014





000
SAUS46 KPQR 220153
MTRREO
METAR KREO 220152Z AUTO 22013KT 19/M07 A2987 RMK AO1 SLP102
T01891067





000
SAUS46 KPQR 220053
MTRREO
METAR KREO 220052Z AUTO 17018G25KT 21/M07 A2988 RMK AO1 PK WND
17028/0035 SLP106 T02061072





000
SAUS46 KPQR 212353
MTRREO
METAR KREO 212352Z AUTO 20015G25KT 21/M09 A2990 RMK AO1 PK WND
20033/2324 SLP111 T02061094 10228 20167 56013





000
SAUS46 KPQR 212253
MTRREO
METAR KREO 212252Z AUTO 18015G22KT 22/M09 A2990 RMK AO1 PK WND
20026/2214 SLP113 T02171094





000
SAUS46 KPQR 212153
MTRREO
METAR KREO 212152Z AUTO 20017G26KT 22/M07 A2992 RMK AO1 PK WND
19026/2149 SLP116 T02221072





000
SAUS46 KPQR 212053
MTRREO
METAR KREO 212052Z AUTO 22007KT 22/M08 A2994 RMK AO1 SLP118
T02221083 58030





000
SAUS46 KPQR 211953
MTRREO
METAR KREO 211952Z AUTO VRB05KT 22/M08 A2997 RMK AO1 SLP129
T02171083





000
SAUS46 KPQR 211853
MTRREO
METAR KREO 211852Z AUTO 22005KT 19/M08 A3001 RMK AO1 SLP145
T01941083





000
SAUS46 KPQR 211753
MTRREO
METAR KREO 211752Z AUTO 00000KT 17/M08 A3004 RMK AO1 SLP153
T01721083 10172 20000 58019





000
SAUS46 KPQR 211653
MTRREO
METAR KREO 211652Z AUTO 00000KT 14/M08 A3006 RMK AO1 SLP165
T01391078





000
SAUS46 KPQR 211553
MTRREO
METAR KREO 211552Z AUTO 00000KT 11/M07 A3008 RMK AO1 SLP175
T01061072





000
SAUS46 KPQR 211453
MTRREO
METAR KREO 211452Z AUTO 05003KT 07/M07 A3010 RMK AO1 SLP186
T00671072 56007





000
SAUS46 KPQR 211353
MTRREO
METAR KREO 211352Z AUTO 00000KT 03/M09 A3011 RMK AO1 SLP188
T00331089





000
SAUS46 KPQR 211253
MTRREO
METAR KREO 211252Z AUTO 00000KT 02/M09 A3011 RMK AO1 SLP187
T00171089





    US Dept of Commerce
    National Oceanic and Atmospheric Administration
    National Weather Service
    1325 East West Highway
    Silver Spring, MD 20910
    Page Author: NWS Internet Services Team
Disclaimer
Information Quality
Credits
Glossary
Privacy Policy
Freedom of Information Act (FOIA)
About Us
Career Opportunities